Time;durP1;ratioP1;P1;durP2;ratioP2;P2;SDS_P1;SDS_P2;PMS_P1;PMS_P2;Temp;Humidity;BMP_temperature;BMP_pressure;BME280_temperature;BME280_humidity;BME280_pressure;Samples;Min_cycle;Max_cycle;Signal;HPM_P1;HPM_P2
2023/07/05 00:01:43;;;;;;;18.40;7.35;;;13.50;99.90;;;;;;6118926;23;20404;-84
2023/07/05 00:04:09;;;;;;;19.45;6.63;;;13.50;99.90;;;;;;6144373;23;20133;-84
2023/07/05 00:06:35;;;;;;;13.15;5.68;;;13.50;99.90;;;;;;6144893;23;20017;-86
2023/07/05 00:09:01;;;;;;;14.32;5.25;;;13.50;99.90;;;;;;6119456;23;20021;-86
2023/07/05 00:11:26;;;;;;;13.07;6.13;;;13.50;99.90;;;;;;6144535;23;20017;-82
2023/07/05 00:13:52;;;;;;;14.20;6.30;;;13.50;99.90;;;;;;6145019;23;20023;-86
2023/07/05 00:16:19;;;;;;;16.88;7.32;;;13.50;99.90;;;;;;6144896;23;20044;-85
2023/07/05 00:18:44;;;;;;;19.38;7.68;;;13.40;99.90;;;;;;6120116;23;20075;-85
2023/07/05 00:21:11;;;;;;;17.70;7.45;;;13.40;99.90;;;;;;6143945;23;20461;-85
2023/07/05 00:23:38;;;;;;;15.80;7.60;;;13.40;99.90;;;;;;6120593;23;20049;-85
2023/07/05 00:26:06;;;;;;;19.08;7.90;;;13.40;99.90;;;;;;6120209;23;20708;-85
2023/07/05 00:28:33;;;;;;;11.85;7.53;;;13.40;99.90;;;;;;6145018;23;20087;-87
2023/07/05 00:30:59;;;;;;;16.45;7.65;;;13.40;99.90;;;;;;6120892;23;20075;-85
2023/07/05 00:33:25;;;;;;;16.48;7.63;;;13.40;99.90;;;;;;6170423;23;20017;-85
2023/07/05 00:35:53;;;;;;;13.90;7.10;;;13.50;99.90;;;;;;6146101;23;20021;-85
2023/07/05 00:38:19;;;;;;;12.02;7.68;;;13.40;99.90;;;;;;6170814;23;20089;-84
2023/07/05 00:40:45;;;;;;;14.80;7.50;;;13.80;99.90;;;;;;6121917;23;20452;-87
2023/07/05 00:43:12;;;;;;;18.45;8.48;;;13.40;99.90;;;;;;6121865;23;20024;-86
2023/07/05 00:45:51;;;;;;;13.02;7.25;;;13.40;99.90;;;;;;6121680;23;20024;-87
2023/07/05 00:48:20;;;;;;;18.70;8.60;;;13.40;99.90;;;;;;6169966;23;20013;-86
2023/07/05 00:50:50;;;;;;;15.85;8.68;;;13.50;99.90;;;;;;6122001;23;20501;-85
2023/07/05 00:53:17;;;;;;;18.85;9.70;;;13.40;99.90;;;;;;6120855;23;20152;-86
2023/07/05 00:55:48;;;;;;;14.70;8.52;;;13.50;99.90;;;;;;6145976;23;20028;-83
2023/07/05 00:58:14;;;;;;;16.40;9.10;;;13.40;99.90;;;;;;6169797;23;20020;-86
2023/07/05 01:00:40;;;;;;;15.40;8.88;;;13.50;99.90;;;;;;6119486;23;20029;-85
2023/07/05 01:03:10;;;;;;;15.15;8.98;;;13.50;99.90;;;;;;6121232;23;20024;-87
2023/07/05 01:05:36;;;;;;;28.35;10.20;;;13.50;99.90;;;;;;6121230;23;20018;-85
2023/07/05 01:08:04;;;;;;;17.23;9.90;;;13.50;99.90;;;;;;6123125;23;20037;-86
2023/07/05 01:10:30;;;;;;;16.75;9.98;;;13.50;99.90;;;;;;6123884;23;20021;-86
2023/07/05 01:13:06;;;;;;;21.38;9.38;;;13.50;99.90;;;;;;6149029;23;20021;-87
2023/07/05 01:15:52;;;;;;;20.90;9.25;;;13.50;99.90;;;;;;6148040;23;20073;-85
2023/07/05 01:18:24;;;;;;;13.63;8.40;;;13.50;99.90;;;;;;6122487;23;20017;-85
2023/07/05 01:20:49;;;;;;;19.30;9.80;;;13.50;99.90;;;;;;6121962;23;20024;-85
2023/07/05 01:23:50;;;;;;;13.98;9.43;;;13.60;99.90;;;;;;6124078;23;20013;-87
2023/07/05 01:26:44;;;;;;;16.20;10.02;;;13.50;99.90;;;;;;6124333;23;20019;-88
2023/07/05 01:29:15;;;;;;;19.30;9.52;;;13.50;99.90;;;;;;6127309;23;20024;-87
2023/07/05 01:32:07;;;;;;;19.40;11.45;;;13.40;99.90;;;;;;6126697;23;20017;-84
2023/07/05 01:34:37;;;;;;;21.27;11.65;;;13.40;99.90;;;;;;6125683;23;20012;-87
2023/07/05 01:37:07;;;;;;;23.55;12.05;;;13.40;99.90;;;;;;6125903;23;20024;-87
2023/07/05 01:39:36;;;;;;;29.30;12.63;;;13.40;99.90;;;;;;6126767;23;20024;-86
2023/07/05 01:42:04;;;;;;;28.50;14.15;;;13.30;99.90;;;;;;6151009;23;20024;-85
2023/07/05 01:44:30;;;;;;;26.00;13.38;;;13.30;99.90;;;;;;6173142;23;20024;-85
2023/07/05 01:47:42;;;;;;;24.50;13.60;;;13.30;99.90;;;;;;6123014;23;20646;-83
2023/07/05 01:50:21;;;;;;;48.33;15.63;;;13.30;99.90;;;;;;6082572;23;20017;-85
2023/07/05 01:53:15;;;;;;;40.60;14.85;;;13.30;99.90;;;;;;6123098;23;20017;-84
2023/07/05 01:56:15;;;;;;;34.25;16.05;;;13.30;99.90;;;;;;6123333;23;20048;-83
2023/07/05 01:58:45;;;;;;;37.95;15.32;;;13.20;99.90;;;;;;6146932;23;20476;-82
2023/07/05 02:01:14;;;;;;;36.95;16.27;;;13.20;99.90;;;;;;6122398;23;20484;-82
2023/07/05 02:03:41;;;;;;;44.45;17.52;;;13.20;99.90;;;;;;6121870;23;20021;-82
2023/07/05 02:06:09;;;;;;;28.38;16.55;;;13.20;99.90;;;;;;6146420;23;20511;-83
2023/07/05 02:08:39;;;;;;;28.02;15.60;;;13.20;99.90;;;;;;6123609;23;20104;-83
2023/07/05 02:11:05;;;;;;;30.75;17.42;;;13.20;99.90;;;;;;6172057;23;20025;-83
2023/07/05 02:13:31;;;;;;;29.75;15.75;;;13.20;99.90;;;;;;6172316;23;20024;-83
2023/07/05 02:15:57;;;;;;;31.67;16.33;;;13.20;99.90;;;;;;6122745;23;20044;-84
2023/07/05 02:18:23;;;;;;;32.55;16.65;;;13.20;99.90;;;;;;6147581;23;20017;-83
2023/07/05 02:20:48;;;;;;;28.90;17.80;;;13.10;99.90;;;;;;6123189;23;20017;-83
2023/07/05 02:23:14;;;;;;;42.55;17.73;;;13.20;99.90;;;;;;6147136;23;20095;-83
2023/07/05 02:25:40;;;;;;;48.45;19.35;;;13.10;99.90;;;;;;6121894;23;20017;-84
2023/07/05 02:28:08;;;;;;;39.08;18.02;;;13.10;99.90;;;;;;6145296;23;20056;-84
2023/07/05 02:30:39;;;;;;;30.45;17.77;;;13.10;99.90;;;;;;6168896;23;20072;-84
2023/07/05 02:33:05;;;;;;;30.98;16.48;;;13.20;99.90;;;;;;6144382;23;20114;-84
2023/07/05 02:35:38;;;;;;;35.20;17.65;;;13.20;99.90;;;;;;6144762;23;20051;-86
2023/07/05 02:38:05;;;;;;;37.47;16.65;;;13.20;99.90;;;;;;6144539;23;20021;-85
2023/07/05 02:40:31;;;;;;;29.70;16.58;;;13.20;99.90;;;;;;6120662;23;20013;-85
2023/07/05 02:43:00;;;;;;;31.85;18.10;;;13.20;99.90;;;;;;6120289;23;20140;-84
2023/07/05 02:45:29;;;;;;;40.25;18.67;;;13.20;99.90;;;;;;6144355;23;20021;-83
2023/07/05 02:47:55;;;;;;;30.55;17.92;;;13.20;99.90;;;;;;6119625;23;20017;-83
2023/07/05 02:50:20;;;;;;;42.20;19.10;;;13.20;99.90;;;;;;6120237;23;20072;-83
2023/07/05 02:52:46;;;;;;;34.53;19.30;;;13.20;99.90;;;;;;6144149;23;20017;-83
2023/07/05 02:55:13;;;;;;;37.22;18.75;;;13.70;99.90;;;;;;6143846;23;20017;-83
2023/07/05 02:57:38;;;;;;;29.52;17.65;;;13.20;99.90;;;;;;6143974;23;20028;-83
2023/07/05 03:00:06;;;;;;;33.75;18.75;;;13.30;99.90;;;;;;6142885;23;20048;-84
2023/07/05 03:02:33;;;;;;;34.20;18.33;;;13.30;99.90;;;;;;6119373;23;20021;-84
2023/07/05 03:05:06;;;;;;;34.33;19.05;;;13.40;99.90;;;;;;6118667;23;20017;-83
2023/07/05 03:07:32;;;;;;;34.50;18.70;;;13.30;99.90;;;;;;6119482;23;20088;-82
2023/07/05 03:09:58;;;;;;;46.97;19.40;;;13.30;99.90;;;;;;6117647;23;20054;-82
2023/07/05 03:12:24;;;;;;;35.28;18.52;;;13.30;99.90;;;;;;6117614;23;20079;-82
2023/07/05 03:14:52;;;;;;;34.45;19.42;;;13.50;99.90;;;;;;6167674;23;20013;-83
2023/07/05 03:17:18;;;;;;;48.08;18.67;;;13.30;99.90;;;;;;6142759;23;20012;-81
2023/07/05 03:19:44;;;;;;;40.15;19.20;;;13.30;99.90;;;;;;6142645;23;20027;-82
2023/07/05 03:22:10;;;;;;;31.60;19.60;;;13.50;99.90;;;;;;6118386;23;20639;-83
2023/07/05 03:24:35;;;;;;;41.92;19.60;;;12.90;99.90;;;;;;6143281;23;20020;-82
2023/07/05 03:27:01;;;;;;;57.47;22.15;;;13.30;99.90;;;;;;6142911;23;20053;-83
2023/07/05 03:29:27;;;;;;;31.58;19.17;;;13.40;99.90;;;;;;6142962;23;20013;-82
2023/07/05 03:31:53;;;;;;;32.85;18.00;;;13.50;99.90;;;;;;6117489;23;20020;-82
2023/07/05 03:34:19;;;;;;;49.80;20.40;;;13.40;99.90;;;;;;6117407;23;20017;-83
2023/07/05 03:36:45;;;;;;;34.83;18.75;;;13.50;99.90;;;;;;6118374;23;20039;-82
2023/07/05 03:39:13;;;;;;;37.10;19.38;;;13.50;99.90;;;;;;6117597;23;20075;-82
2023/07/05 03:41:38;;;;;;;43.25;20.33;;;13.50;99.90;;;;;;6142655;23;20024;-82
2023/07/05 03:44:04;;;;;;;30.05;18.45;;;13.50;99.90;;;;;;6142775;23;20013;-82
2023/07/05 03:46:30;;;;;;;32.05;18.20;;;13.50;99.90;;;;;;6142731;23;20123;-82
2023/07/05 03:48:56;;;;;;;42.65;19.40;;;13.60;99.90;;;;;;6117897;23;20025;-83
2023/07/05 03:51:23;;;;;;;26.83;16.25;;;13.50;99.90;;;;;;6142561;23;20021;-83
2023/07/05 03:53:54;;;;;;;29.75;17.42;;;13.60;99.90;;;;;;6118727;23;20524;-82
2023/07/05 03:56:20;;;;;;;28.17;16.73;;;13.60;99.90;;;;;;6167789;23;20017;-84
2023/07/05 03:58:46;;;;;;;53.60;20.60;;;13.60;99.90;;;;;;6143443;23;20020;-83
2023/07/05 04:01:17;;;;;;;37.47;19.92;;;13.70;99.90;;;;;;6117667;23;20081;-82
2023/07/05 04:03:48;;;;;;;29.83;17.67;;;13.70;99.90;;;;;;6118372;23;20080;-83
2023/07/05 04:06:16;;;;;;;38.33;19.00;;;13.70;99.90;;;;;;6143130;23;20020;-83
2023/07/05 04:08:42;;;;;;;32.58;18.40;;;13.70;99.90;;;;;;6118660;23;20079;-83
2023/07/05 04:11:08;;;;;;;43.13;20.85;;;13.70;99.90;;;;;;6117523;23;20017;-83
2023/07/05 04:13:35;;;;;;;47.75;20.77;;;13.80;99.90;;;;;;6118252;23;20076;-83
2023/07/05 04:16:12;;;;;;;34.33;17.75;;;13.80;99.90;;;;;;6167441;23;20052;-83
2023/07/05 04:18:39;;;;;;;36.55;19.15;;;13.80;99.90;;;;;;6118526;23;20020;-83
2023/07/05 04:21:06;;;;;;;47.17;21.35;;;13.90;99.90;;;;;;6141802;23;20286;-82
2023/07/05 04:23:32;;;;;;;32.03;19.80;;;13.90;99.90;;;;;;6167526;23;20108;-83
2023/07/05 04:26:07;;;;;;;32.53;19.25;;;13.90;99.90;;;;;;6117552;23;20017;-83
2023/07/05 04:28:33;;;;;;;32.55;18.52;;;14.00;99.90;;;;;;6117893;23;20017;-83
2023/07/05 04:31:00;;;;;;;27.15;18.33;;;14.00;99.90;;;;;;6118369;23;20021;-82
2023/07/05 04:33:26;;;;;;;27.35;17.50;;;14.10;99.90;;;;;;6117695;23;20020;-82
2023/07/05 04:35:56;;;;;;;25.30;18.10;;;14.10;99.90;;;;;;6167961;23;20017;-83
2023/07/05 04:38:23;;;;;;;43.63;20.08;;;14.10;99.90;;;;;;6142503;23;20028;-82
2023/07/05 04:40:48;;;;;;;28.05;16.38;;;14.20;99.90;;;;;;6168142;23;20028;-83
2023/07/05 04:43:14;;;;;;;30.15;16.55;;;14.20;99.90;;;;;;6143362;23;20013;-83
2023/07/05 04:45:40;;;;;;;40.70;19.42;;;14.20;99.90;;;;;;6143359;23;20013;-83
2023/07/05 04:48:06;;;;;;;39.95;18.42;;;14.20;99.90;;;;;;6119980;23;20028;-84
2023/07/05 04:50:32;;;;;;;41.15;18.65;;;14.20;99.90;;;;;;6119756;23;20020;-82
2023/07/05 04:52:58;;;;;;;22.30;14.82;;;14.30;99.90;;;;;;6144349;23;20413;-82
2023/07/05 04:55:24;;;;;;;30.50;15.38;;;14.30;99.90;;;;;;6119571;23;20021;-82
2023/07/05 04:57:50;;;;;;;29.58;13.48;;;14.30;99.90;;;;;;6119906;23;20021;-81
2023/07/05 05:00:16;;;;;;;27.95;12.45;;;14.30;99.90;;;;;;6143748;23;20079;-83
2023/07/05 05:02:42;;;;;;;24.20;10.82;;;14.30;99.90;;;;;;6168403;23;20678;-83
2023/07/05 05:05:08;;;;;;;21.15;8.80;;;14.20;99.90;;;;;;6170129;23;20081;-83
2023/07/05 05:07:34;;;;;;;14.52;7.78;;;14.20;99.90;;;;;;6120164;23;20009;-87
2023/07/05 05:10:01;;;;;;;16.92;7.82;;;14.10;99.90;;;;;;6144049;23;20013;-83
2023/07/05 05:12:27;;;;;;;14.00;7.85;;;14.00;99.90;;;;;;6143897;23;20079;-83
2023/07/05 05:14:53;;;;;;;13.80;8.60;;;14.00;99.90;;;;;;6169711;23;20021;-82
2023/07/05 05:17:18;;;;;;;12.20;8.45;;;13.90;99.90;;;;;;6146191;23;20009;-85
2023/07/05 05:19:44;;;;;;;14.13;7.95;;;13.80;99.90;;;;;;6145322;23;20021;-83
2023/07/05 05:22:13;;;;;;;13.65;8.57;;;13.70;99.90;;;;;;6145017;23;20024;-85
2023/07/05 05:24:39;;;;;;;20.65;9.10;;;13.60;99.90;;;;;;6145308;23;20048;-83
2023/07/05 05:27:05;;;;;;;13.10;8.27;;;13.60;99.90;;;;;;6120043;23;20464;-83
2023/07/05 05:29:32;;;;;;;22.95;10.10;;;13.70;99.90;;;;;;6143702;23;20021;-84
2023/07/05 05:31:58;;;;;;;27.17;10.70;;;13.70;99.90;;;;;;6118898;23;20028;-83
2023/07/05 05:34:27;;;;;;;16.27;8.80;;;13.70;99.90;;;;;;6144043;23;20452;-82
2023/07/05 05:36:53;;;;;;;11.90;7.80;;;13.70;99.90;;;;;;6143602;23;20017;-83
2023/07/05 05:39:20;;;;;;;18.08;10.45;;;13.70;99.90;;;;;;6144409;23;20076;-83
2023/07/05 05:41:46;;;;;;;15.50;9.27;;;13.70;99.90;;;;;;6143628;23;20017;-83
2023/07/05 05:44:12;;;;;;;13.15;8.05;;;13.70;99.90;;;;;;6120359;23;20019;-83
2023/07/05 05:46:38;;;;;;;12.07;9.25;;;13.80;99.90;;;;;;6120498;23;20116;-82
2023/07/05 05:49:04;;;;;;;12.43;8.70;;;14.10;99.90;;;;;;6169398;23;20052;-84
2023/07/05 05:51:29;;;;;;;13.27;9.40;;;15.00;99.90;;;;;;6119130;23;20767;-82
2023/07/05 05:53:55;;;;;;;13.35;8.50;;;16.10;99.90;;;;;;6143615;23;20063;-82
2023/07/05 05:56:21;;;;;;;11.18;7.90;;;15.70;99.90;;;;;;6143226;23;20021;-83
2023/07/05 05:58:47;;;;;;;10.02;7.57;;;15.50;99.90;;;;;;6143790;23;20024;-83
2023/07/05 06:01:13;;;;;;;8.82;6.38;;;15.20;99.90;;;;;;6119601;23;20021;-84
2023/07/05 06:03:39;;;;;;;9.30;5.53;;;14.80;99.90;;;;;;6119914;23;20016;-82
2023/07/05 06:06:06;;;;;;;8.52;5.93;;;14.60;99.90;;;;;;6119809;23;20021;-83
2023/07/05 06:08:34;;;;;;;8.52;5.72;;;14.40;99.90;;;;;;6119683;23;20056;-83
2023/07/05 06:11:03;;;;;;;7.95;4.90;;;14.30;99.90;;;;;;6119405;23;20017;-85
2023/07/05 06:13:29;;;;;;;7.18;4.53;;;14.10;99.90;;;;;;6120267;23;20017;-83
2023/07/05 06:15:57;;;;;;;10.27;5.22;;;14.00;99.90;;;;;;6120745;23;20028;-83
2023/07/05 06:18:25;;;;;;;10.27;5.10;;;13.90;99.90;;;;;;6119754;23;20424;-83
2023/07/05 06:20:51;;;;;;;6.35;4.60;;;13.80;99.90;;;;;;6143545;23;20100;-84
2023/07/05 06:23:17;;;;;;;6.97;3.90;;;13.80;99.90;;;;;;6144809;23;20068;-84
2023/07/05 06:25:47;;;;;;;7.07;3.92;;;14.00;99.90;;;;;;6168914;23;20095;-83
2023/07/05 06:28:13;;;;;;;8.20;4.55;;;14.60;99.90;;;;;;6118564;23;20012;-83
2023/07/05 06:30:39;;;;;;;6.43;4.10;;;16.10;99.90;;;;;;6118131;23;20123;-83
2023/07/05 06:33:04;;;;;;;7.13;3.60;;;17.60;99.90;;;;;;6141893;23;20440;-82
2023/07/05 06:35:32;;;;;;;5.28;2.88;;;18.90;99.90;;;;;;6168033;23;20020;-83
2023/07/05 06:37:58;;;;;;;6.07;3.30;;;19.90;99.90;;;;;;6118863;23;20032;-83
2023/07/05 06:40:24;;;;;;;5.28;2.75;;;20.20;99.90;;;;;;6118251;23;20024;-84
2023/07/05 06:42:50;;;;;;;5.43;2.88;;;20.30;99.90;;;;;;6119042;23;20009;-84
2023/07/05 06:45:16;;;;;;;5.68;3.28;;;21.00;99.90;;;;;;6118917;23;20091;-83
2023/07/05 06:47:42;;;;;;;5.25;2.58;;;21.40;99.90;;;;;;6117548;23;20013;-83
2023/07/05 06:50:09;;;;;;;5.03;2.53;;;21.50;99.90;;;;;;6142427;23;20035;-84
2023/07/05 06:52:35;;;;;;;5.05;2.13;;;20.80;99.90;;;;;;6143184;23;20044;-83
2023/07/05 06:55:01;;;;;;;5.15;2.65;;;22.00;99.90;;;;;;6118260;23;20024;-85
2023/07/05 06:57:26;;;;;;;5.35;2.60;;;22.70;99.90;;;;;;6143527;23;20012;-84
2023/07/05 06:59:52;;;;;;;4.15;2.40;;;22.10;99.90;;;;;;6118991;23;20527;-83
2023/07/05 07:02:23;;;;;;;6.70;2.58;;;22.30;99.90;;;;;;6118102;23;20060;-82
2023/07/05 07:04:48;;;;;;;4.25;2.30;;;22.20;99.90;;;;;;6142077;23;20127;-84
2023/07/05 07:07:14;;;;;;;4.65;2.40;;;23.10;99.90;;;;;;6143168;23;20444;-85
2023/07/05 07:09:43;;;;;;;4.43;2.45;;;23.20;99.90;;;;;;6118251;23;20044;-84
2023/07/05 07:12:10;;;;;;;5.15;2.72;;;23.10;99.90;;;;;;6142107;23;20017;-83
2023/07/05 07:14:35;;;;;;;4.38;2.35;;;23.40;99.90;;;;;;6143621;23;20024;-85
2023/07/05 07:17:01;;;;;;;5.88;2.55;;;23.60;99.90;;;;;;6143345;23;20216;-86
2023/07/05 07:19:27;;;;;;;8.98;2.22;;;22.50;99.90;;;;;;6118156;23;20099;-84
2023/07/05 07:21:55;;;;;;;5.55;2.30;;;21.80;99.90;;;;;;6167496;23;20453;-83
2023/07/05 07:24:21;;;;;;;6.88;2.13;;;20.70;99.90;;;;;;6143532;23;20025;-85
2023/07/05 07:26:47;;;;;;;11.13;3.13;;;21.40;99.90;;;;;;6119345;23;20528;-84
2023/07/05 07:29:13;;;;;;;5.05;2.25;;;22.10;99.90;;;;;;6143837;23;20017;-85
2023/07/05 07:31:38;;;;;;;4.10;1.95;;;22.70;99.90;;;;;;6142817;23;20047;-85
2023/07/05 07:34:07;;;;;;;3.05;1.90;;;23.40;99.90;;;;;;6117393;23;20013;-86
2023/07/05 07:36:36;;;;;;;4.38;1.92;;;22.60;99.90;;;;;;6118759;23;20626;-87
2023/07/05 07:39:02;;;;;;;5.47;2.50;;;21.80;99.90;;;;;;6117608;23;20096;-84
2023/07/05 07:41:31;;;;;;;6.30;2.33;;;20.30;99.90;;;;;;6117350;23;20099;-84
2023/07/05 07:44:03;;;;;;;4.97;2.05;;;19.30;99.90;;;;;;6142707;23;20009;-84
2023/07/05 07:46:35;;;;;;;;;;;18.40;99.90;;;;;;6142415;23;20573;-83
2023/07/05 07:49:02;;;;;;;4.13;1.92;;;17.80;99.90;;;;;;6141855;23;19916;-84
2023/07/05 07:51:33;;;;;;;5.57;2.58;;;17.10;99.90;;;;;;6117411;23;20364;-84
2023/07/05 07:54:00;;;;;;;4.88;2.33;;;17.50;99.90;;;;;;6116396;23;20020;-84
2023/07/05 07:56:26;;;;;;;3.40;1.65;;;16.50;99.90;;;;;;6142208;23;20048;-83
2023/07/05 07:58:54;;;;;;;7.45;1.98;;;16.30;99.90;;;;;;6117818;23;20064;-84
2023/07/05 08:01:32;;;;;;;5.05;2.38;;;16.10;99.90;;;;;;6115233;23;20021;-83
2023/07/05 08:04:01;;;;;;;5.68;2.30;;;15.80;99.90;;;;;;6116669;23;20040;-82
2023/07/05 08:06:40;;;;;;;4.03;0.40;;;15.40;99.90;;;;;;6115206;23;20017;-85
2023/07/05 08:09:08;;;;;;;1.27;0.40;;;15.20;99.90;;;;;;6114818;23;20646;-83
2023/07/05 08:11:38;;;;;;;1.90;0.70;;;14.80;99.90;;;;;;6115610;23;20028;-85
2023/07/05 08:14:05;;;;;;;1.90;1.00;;;14.90;99.90;;;;;;6142234;23;20017;-84
2023/07/05 08:16:31;;;;;;;4.18;0.80;;;14.30;99.90;;;;;;6140840;23;20079;-84
2023/07/05 08:18:57;;;;;;;3.92;0.40;;;14.20;99.90;;;;;;6116616;23;20165;-82
2023/07/05 08:21:23;;;;;;;2.05;0.70;;;14.10;99.90;;;;;;6167475;23;20429;-83
2023/07/05 08:23:49;;;;;;;2.90;0.57;;;14.20;99.90;;;;;;6142996;23;20953;-83
2023/07/05 08:26:15;;;;;;;2.67;0.30;;;14.30;99.90;;;;;;6143397;23;20404;-83
2023/07/05 08:28:45;;;;;;;2.88;0.30;;;14.30;99.90;;;;;;6117364;23;20923;-82
2023/07/05 08:31:13;;;;;;;1.40;0.30;;;14.90;99.90;;;;;;6144632;23;20091;-83
2023/07/05 08:33:45;;;;;;;1.77;0.30;;;14.10;99.90;;;;;;6118170;23;20024;-82
2023/07/05 08:36:18;;;;;;;2.43;0.20;;;13.80;99.90;;;;;;6118542;23;20054;-82
2023/07/05 08:38:50;;;;;;;0.65;0.20;;;13.60;99.90;;;;;;6116426;23;20062;-82
2023/07/05 08:41:55;;;;;;;3.45;0.20;;;13.40;99.90;;;;;;6141715;23;20009;-82
2023/07/05 08:45:06;;;;;;;3.35;0.38;;;13.20;99.90;;;;;;6117529;23;20076;-84
2023/07/05 08:47:36;;;;;;;2.60;0.40;;;13.10;99.90;;;;;;6142982;23;20112;-81
2023/07/05 08:50:06;;;;;;;1.20;0.20;;;12.90;99.90;;;;;;6117741;23;20357;-83
2023/07/05 08:52:39;;;;;;;1.40;0.30;;;12.80;99.90;;;;;;6119444;23;20069;-83
2023/07/05 08:55:11;;;;;;;1.80;0.22;;;12.60;99.90;;;;;;6170844;23;20618;-84
2023/07/05 08:57:54;;;;;;;1.00;0.20;;;12.60;99.90;;;;;;6145815;23;20092;-86
2023/07/05 09:00:30;;;;;;;2.97;0.40;;;12.50;99.90;;;;;;6120354;23;20020;-83
2023/07/05 09:02:56;;;;;;;2.45;0.38;;;12.50;99.90;;;;;;6145592;23;20048;-85
2023/07/05 09:05:35;;;;;;;2.20;0.40;;;12.40;99.90;;;;;;6145232;23;20023;-84
2023/07/05 09:08:17;;;;;;;1.92;0.60;;;12.40;99.90;;;;;;6120311;23;20345;-82
2023/07/05 09:10:52;;;;;;;1.98;0.47;;;12.40;99.90;;;;;;6144487;23;20053;-82
2023/07/05 09:13:42;;;;;;;2.00;0.77;;;12.30;99.90;;;;;;6120821;23;20710;-84
2023/07/05 09:16:26;;;;;;;2.10;0.50;;;12.30;99.90;;;;;;6146371;23;20076;-83
2023/07/05 09:19:01;;;;;;;3.70;0.90;;;12.20;99.90;;;;;;6170553;23;20749;-83
2023/07/05 09:21:37;;;;;;;3.58;0.70;;;12.20;99.90;;;;;;6172289;23;20048;-83
2023/07/05 09:24:39;;;;;;;8.10;1.00;;;12.10;99.90;;;;;;6121814;23;20025;-84
2023/07/05 09:27:22;;;;;;;3.38;0.65;;;12.10;99.90;;;;;;6113558;23;20448;-86
2023/07/05 09:30:14;;;;;;;3.42;1.30;;;12.60;99.90;;;;;;6139387;23;20016;-88
2023/07/05 09:32:45;;;;;;;2.05;0.50;;;12.20;99.90;;;;;;6119026;23;20663;-87
2023/07/05 09:35:17;;;;;;;3.97;1.08;;;12.30;99.90;;;;;;6145029;23;20017;-87
2023/07/05 09:37:56;;;;;;;3.78;1.00;;;13.10;99.90;;;;;;6118061;23;20592;-85
2023/07/05 09:40:25;;;;;;;5.72;1.08;;;12.90;99.90;;;;;;6145294;23;20009;-88
2023/07/05 09:43:07;;;;;;;4.38;0.65;;;12.80;99.90;;;;;;6143193;23;20364;-90
2023/07/05 09:45:44;;;;;;;;;;;13.40;99.90;;;;;;6144808;23;20092;-87
2023/07/05 09:48:12;;;;;;;2.63;0.40;;;12.10;99.90;;;;;;6116907;23;19916;-93
2023/07/05 09:50:49;;;;;;;5.53;0.65;;;12.90;99.90;;;;;;6110863;23;20077;-86
2023/07/05 09:53:56;;;;;;;8.35;1.05;;;12.80;99.90;;;;;;6110671;23;20020;-86
2023/07/05 09:56:27;;;;;;;5.88;1.60;;;12.00;99.90;;;;;;6116257;23;20021;-90
2023/07/05 09:59:21;;;;;;;4.57;1.00;;;12.80;99.90;;;;;;6167255;23;20104;-87
2023/07/05 10:01:54;;;;;;;5.97;1.23;;;12.80;99.90;;;;;;6117143;23;20027;-86
2023/07/05 10:04:29;;;;;;;3.55;0.70;;;12.90;99.90;;;;;;6144239;23;20013;-85
2023/07/05 10:06:55;;;;;;;6.32;1.17;;;14.30;99.90;;;;;;6146517;23;20815;-91
2023/07/05 10:09:25;;;;;;;4.75;0.73;;;13.30;99.90;;;;;;6173865;23;20021;-87
2023/07/05 10:11:59;;;;;;;7.43;1.67;;;13.30;99.90;;;;;;6123784;23;20024;-87
2023/07/05 10:14:30;;;;;;;6.10;0.70;;;13.70;99.90;;;;;;6123726;23;20017;-87
2023/07/05 10:17:09;;;;;;;3.13;0.73;;;14.20;99.90;;;;;;6123707;23;20016;-89
2023/07/05 10:19:42;;;;;;;7.45;0.82;;;14.80;99.90;;;;;;6123496;23;20563;-90
2023/07/05 10:22:34;;;;;;;4.80;0.90;;;14.30;99.90;;;;;;6147602;23;21020;-92
2023/07/05 10:25:05;;;;;;;4.07;0.80;;;14.40;99.90;;;;;;6117814;23;20067;-88
2023/07/05 10:27:33;;;;;;;5.78;0.63;;;14.70;99.90;;;;;;6112459;23;20012;-86
2023/07/05 10:30:06;;;;;;;4.10;0.80;;;14.60;99.90;;;;;;6116142;23;20317;-85
2023/07/05 10:32:32;;;;;;;5.90;0.93;;;15.50;99.90;;;;;;6141198;23;20464;-85
2023/07/05 10:35:00;;;;;;;4.25;0.73;;;14.80;99.90;;;;;;6116798;23;20027;-87
2023/07/05 10:37:37;;;;;;;4.45;0.70;;;14.80;99.90;;;;;;6118751;23;20092;-85
2023/07/05 10:40:17;;;;;;;4.47;0.98;;;13.50;99.90;;;;;;6139370;23;20024;-88
2023/07/05 10:43:01;;;;;;;11.18;1.00;;;14.90;99.90;;;;;;6114968;23;20013;-89
2023/07/05 10:45:34;;;;;;;5.15;0.60;;;14.20;99.90;;;;;;6147244;23;20032;-88
2023/07/05 10:48:03;;;;;;;4.45;0.70;;;15.00;99.90;;;;;;6146395;23;20017;-88
2023/07/05 10:50:37;;;;;;;6.53;1.60;;;15.00;99.90;;;;;;6121323;23;20013;-87
2023/07/05 10:53:28;;;;;;;3.55;0.60;;;17.50;99.90;;;;;;6120888;23;20706;-86
2023/07/05 10:56:14;;;;;;;6.55;0.80;;;15.40;99.90;;;;;;6120090;23;20019;-89
2023/07/05 10:58:45;;;;;;;7.00;0.90;;;15.50;99.90;;;;;;6139697;23;20017;-87
2023/07/05 11:01:42;;;;;;;5.78;0.70;;;15.50;99.90;;;;;;6143947;23;20020;-90
2023/07/05 11:04:16;;;;;;;5.45;1.05;;;15.20;99.90;;;;;;6120262;23;20778;-86
2023/07/05 11:06:45;;;;;;;4.50;0.73;;;15.20;99.90;;;;;;6121014;23;20091;-88
2023/07/05 11:09:11;;;;;;;4.68;0.65;;;15.20;99.90;;;;;;6146337;23;20112;-88
2023/07/05 11:12:18;;;;;;;7.43;1.33;;;15.50;99.90;;;;;;6118693;23;20023;-87
2023/07/05 11:14:52;;;;;;;7.10;1.10;;;17.60;99.90;;;;;;6119958;23;20031;-86
2023/07/05 11:17:26;;;;;;;7.57;1.20;;;15.90;99.90;;;;;;6147052;23;20037;-86
2023/07/05 11:19:55;;;;;;;9.68;1.15;;;16.10;99.90;;;;;;6142127;23;20044;-88
2023/07/05 11:23:19;;;;;;;5.95;1.00;;;15.90;99.90;;;;;;6119416;23;20021;-88
2023/07/05 11:26:17;;;;;;;6.05;1.02;;;14.80;99.90;;;;;;6059312;23;20014;-87
2023/07/05 11:29:00;;;;;;;5.15;0.70;;;16.00;99.90;;;;;;6082886;23;20022;-90
2023/07/05 11:31:44;;;;;;;7.53;0.90;;;16.40;99.90;;;;;;6085388;23;20022;-87
2023/07/05 11:34:23;;;;;;;4.07;0.85;;;15.20;99.90;;;;;;6062703;23;20096;-86
2023/07/05 11:37:04;;;;;;;4.45;0.85;;;15.80;99.90;;;;;;6106711;23;20355;-86
2023/07/05 11:39:34;;;;;;;3.65;1.38;;;16.20;99.90;;;;;;6118508;23;20309;-86
2023/07/05 11:42:15;;;;;;;3.33;0.50;;;16.10;99.90;;;;;;6119705;23;20017;-84
2023/07/05 11:45:29;;;;;;;;;;;;;;;;;;;;;
2023/07/05 11:47:56;;;;;;;5.75;0.60;;;17.50;99.90;;;;;;6134855;23;20093;-86
2023/07/05 11:50:31;;;;;;;2.10;0.55;;;11.80;99.90;;;;;;6110731;23;20020;-86
2023/07/05 11:53:10;;;;;;;4.75;0.50;;;14.00;99.90;;;;;;6142185;23;20021;-85
2023/07/05 11:55:48;;;;;;;4.72;0.68;;;14.20;99.90;;;;;;6108209;23;20381;-85
2023/07/05 11:58:29;;;;;;;6.20;1.73;;;13.80;99.90;;;;;;6107147;23;20018;-86
2023/07/05 12:02:01;;;;;;;2.88;0.50;;;13.10;99.90;;;;;;6112675;23;20022;-85
2023/07/05 12:04:32;;;;;;;6.10;1.27;;;14.80;99.90;;;;;;6058647;23;20021;-86
2023/07/05 12:07:02;;;;;;;3.08;0.50;;;11.90;99.90;;;;;;6109557;23;20088;-85
2023/07/05 12:09:36;;;;;;;3.88;0.40;;;13.10;99.90;;;;;;6108705;23;20021;-85
2023/07/05 12:12:03;;;;;;;0.98;0.30;;;13.30;99.90;;;;;;6104959;23;20557;-85
2023/07/05 12:14:32;;;;;;;7.18;1.23;;;13.70;99.90;;;;;;6103365;23;20024;-85
2023/07/05 12:16:58;;;;;;;3.85;0.50;;;13.70;99.90;;;;;;6107416;23;20210;-85
2023/07/05 12:19:30;;;;;;;3.25;0.40;;;13.50;99.90;;;;;;6108300;23;20724;-86
2023/07/05 12:22:04;;;;;;;4.18;1.00;;;11.80;99.90;;;;;;6106324;23;20021;-86
2023/07/05 12:24:44;;;;;;;2.22;0.45;;;14.20;99.90;;;;;;6100633;23;20442;-88
2023/07/05 12:27:34;;;;;;;3.95;0.50;;;14.10;99.90;;;;;;6123365;23;20384;-84
2023/07/05 12:30:08;;;;;;;2.00;0.60;;;15.20;99.90;;;;;;6108327;23;20596;-86
2023/07/05 12:32:35;;;;;;;6.63;0.98;;;14.50;99.90;;;;;;6109221;23;20017;-86
2023/07/05 12:35:05;;;;;;;4.13;0.57;;;14.30;99.90;;;;;;6134837;23;20021;-85
2023/07/05 12:37:36;;;;;;;1.48;0.22;;;14.90;99.90;;;;;;6113839;23;20095;-84
2023/07/05 12:40:40;;;;;;;6.97;1.00;;;14.30;99.90;;;;;;6113626;23;20028;-84
2023/07/05 12:43:08;;;;;;;3.45;0.60;;;14.20;99.90;;;;;;6138072;23;20020;-86
2023/07/05 12:45:35;;;;;;;4.60;1.10;;;14.50;99.90;;;;;;6112246;23;20013;-85
2023/07/05 12:48:21;;;;;;;6.50;0.50;;;14.50;99.90;;;;;;6137263;23;20021;-86
2023/07/05 12:50:47;;;;;;;5.63;0.70;;;14.70;99.90;;;;;;6140892;23;20078;-87
2023/07/05 12:53:19;;;;;;;3.75;0.50;;;15.00;99.90;;;;;;6112685;23;20859;-85
2023/07/05 12:56:32;;;;;;;;;;;;;;;;;;;;;
2023/07/05 12:59:17;;;;;;;3.97;0.65;;;15.20;99.90;;;;;;6099863;23;20413;-88
2023/07/05 13:01:45;;;;;;;6.35;0.70;;;14.80;99.90;;;;;;6078562;23;20036;-88
2023/07/05 13:04:17;;;;;;;5.00;0.77;;;15.50;99.90;;;;;;6101534;23;20024;-86
2023/07/05 13:14:26;;;;;;;6.13;1.00;;;13.40;99.90;;;;;;5964656;23;20055;-87